1897 Tropical Storm NOT_NAMED (1897269N12307)


IBTrACS version v04r00. Visit IBTrACS website for data access.
Please direct all questions to the IBTrACS Q and A forum

Storm track - Intensity - Wind Radii - Intensity Data - Source Data - All data

Summary Information

Storm ID 1897269N12307
Start Sep 25 12Z
Landfall Sep 28 06Z
Max Intensity 40 kt (Oct 2 06Z)
End Oct 7 12Z
ATCF IDs
Track status Best track data.

Storm track plot

Map of storm track

Intensity plots

Map of storm track

Radial wind information

No radial wind information for this storm


Position and Intensity Table

BASIN ISO_TIME_________ NATURE LAT LON MLC WIND
degrees north degrees east kts
NA 1897-09-25 12:00:00 TS 12.20 -53.50 35
NA 15:00:00 TS 12.30 -54.20 35
NA 18:00:00 TS 12.40 -54.90 35
NA 21:00:00 TS 12.50 -55.60 35
NA 1897-09-26 00:00:00 TS 12.60 -56.30 35
NA 03:00:00 TS 12.71 -57.01 35
NA 06:00:00 TS 12.80 -57.70 35
NA 09:00:00 TS 12.80 -58.36 35
NA 12:00:00 TS 12.90 -59.00 35
NA 15:00:00 TS 13.25 -59.65 35
NA 18:00:00 TS 13.70 -60.30 35
NA 21:00:00 TS 14.10 -60.95 35
NA 1897-09-27 00:00:00 TS 14.50 -61.60 35
NA 03:00:00 TS 14.91 -62.25 35
NA 06:00:00 TS 15.30 -62.90 35
NA 09:00:00 TS 15.65 -63.61 35
NA 12:00:00 TS 16.00 -64.20 35
NA 15:00:00 TS 16.40 -64.51 32
NA 18:00:00 TS 16.80 -64.70 30
NA 21:00:00 TS 17.15 -64.95 30
NA 1897-09-28 00:00:00 TS 17.50 -65.20 30
NA 03:00:00 TS 17.90 -65.45 30
NA 06:00:00 TS 18.30 -65.70 30
NA 09:00:00 TS 18.67 -65.94 30
NA 12:00:00 TS 19.00 -66.20 30
NA 15:00:00 TS 19.27 -66.54 30
NA 18:00:00 TS 19.50 -66.90 30
NA 21:00:00 TS 19.75 -67.20 30
NA 1897-09-29 00:00:00 TS 20.00 -67.50 30
NA 03:00:00 TS 20.25 -67.85 30
NA 06:00:00 TS 20.50 -68.20 30
NA 09:00:00 TS 20.75 -68.52 30
NA 12:00:00 TS 21.00 -68.80 30
NA 15:00:00 TS 21.26 -69.02 30
NA 18:00:00 TS 21.50 -69.20 30
NA 21:00:00 TS 21.70 -69.39 30
NA 1897-09-30 00:00:00 TS 21.90 -69.60 30
NA 03:00:00 TS 22.15 -69.85 30
NA 06:00:00 TS 22.40 -70.10 30
NA 09:00:00 TS 22.59 -70.32 30
NA 12:00:00 TS 22.80 -70.50 30
NA 15:00:00 TS 23.09 -70.66 30
NA 18:00:00 TS 23.40 -70.80 30
NA 21:00:00 TS 23.65 -70.90 30
NA 1897-10-01 00:00:00 TS 23.90 -71.00 30
NA 03:00:00 TS 24.20 -71.15 30
NA 06:00:00 TS 24.50 -71.30 30
NA 09:00:00 TS 24.75 -71.42 30
NA 12:00:00 TS 25.00 -71.50 30
NA 15:00:00 TS 25.30 -71.52 32
NA 18:00:00 TS 25.60 -71.50 35
NA 21:00:00 TS 25.85 -71.51 35
NA 1897-10-02 00:00:00 TS 26.10 -71.50 35
NA 03:00:00 TS 26.40 -71.46 37
NA 06:00:00 TS 26.70 -71.40 40
NA 09:00:00 TS 26.95 -71.34 40
NA 12:00:00 TS 27.20 -71.20 40
NA 15:00:00 TS 27.49 -70.88 40
NA 18:00:00 TS 27.80 -70.50 40
NA 21:00:00 TS 28.10 -70.19 40
NA 1897-10-03 00:00:00 TS 28.40 -69.90 40
NA 03:00:00 TS 28.71 -69.60 40
NA 06:00:00 TS 29.00 -69.30 40
NA 09:00:00 TS 29.26 -69.00 40
NA 12:00:00 TS 29.50 -68.70 40
NA 15:00:00 TS 29.71 -68.39 40
NA 18:00:00 TS 29.90 -68.10 40
NA 21:00:00 TS 30.05 -67.85 40
NA 1897-10-04 00:00:00 TS 30.20 -67.60 40
NA 03:00:00 TS 30.40 -67.30 40
NA 06:00:00 TS 30.60 -67.00 40
NA 09:00:00 TS 30.75 -66.75 40
NA 12:00:00 TS 30.90 -66.50 40
NA 15:00:00 TS 31.10 -66.20 40
NA 18:00:00 TS 31.30 -65.90 40
NA 21:00:00 TS 31.45 -65.65 40
NA 1897-10-05 00:00:00 TS 31.60 -65.40 40
NA 03:00:00 TS 31.80 -65.10 40
NA 06:00:00 TS 32.00 -64.80 40
NA 09:00:00 TS 32.10 -64.61 37
NA 12:00:00 TS 32.30 -64.30 35
NA 15:00:00 TS 32.75 -63.67 35
NA 18:00:00 ET 33.30 -62.90 35
NA 21:00:00 ET 33.80 -62.20 32
NA 1897-10-06 00:00:00 ET 34.30 -61.50 30
NA 03:00:00 ET 34.80 -60.80 30
NA 06:00:00 ET 35.30 -60.10 30
NA 09:00:00 ET 35.75 -59.43 30
NA 12:00:00 ET 36.30 -58.70 30
NA 15:00:00 ET 37.10 -57.80 30
NA 18:00:00 ET 38.00 -56.80 30
NA 21:00:00 ET 38.85 -55.80 30
NA 1897-10-07 00:00:00 ET 39.70 -54.80 30
NA 03:00:00 ET 40.56 -53.84 30
NA 06:00:00 ET 41.40 -52.90 30
NA 09:00:00 ET 42.21 -51.96 30
NA 12:00:00 ET 43.00 -51.00 30

Source Information

Agency Information
USA
TOKYO
CMA
HKO
NEWDELHI
REUNION
BOM
NADI
WELLINGTON
DS824
TD9636
TD9635
NEUMANN
MLC

All available IBTrACS Data

SEASON BASIN SUBBASIN ISO_TIME_________ NATURE LAT LON DIST2LAND LANDFALL IFLAG USA SSHS MLC LAT MLC LON MLC CLASS MLC WIND STORM SPEED STORM DIR
Year degrees north degrees east km km 1 degrees north degrees east kts kts degrees
1897 NA NA 1897-09-25 12:00:00 TS 12.20 -53.50 709 707 _____________O -1 12.20 -53.50 TS 35 14 278
1897 NA NA 15:00:00 TS 12.30 -54.20 712 666 _____________P -1 12.30 -54.20 TS 35 14 278
1897 NA NA 18:00:00 TS 12.40 -54.90 666 622 _____________O -1 12.40 -54.90 TS 35 14 278
1897 NA NA 21:00:00 TS 12.50 -55.60 622 554 _____________P -1 12.50 -55.60 TS 35 14 278
1897 NA NA 1897-09-26 00:00:00 TS 12.60 -56.30 554 490 _____________O -1 12.60 -56.30 TS 35 14 279
1897 NA NA 03:00:00 TS 12.71 -57.01 490 429 _____________P -1 12.71 -57.01 TS 35 14 278
1897 NA NA 06:00:00 TS 12.80 -57.70 429 376 _____________O -1 12.80 -57.70 TS 35 13 274
1897 NA NA 09:00:00 TS 12.80 -58.36 368 328 _____________P -1 12.80 -58.36 TS 35 13 275
1897 NA NA 12:00:00 TS 12.90 -59.00 328 314 _____________O -1 12.90 -59.00 TS 35 13 289
1897 NA CS 15:00:00 TS 13.25 -59.65 318 318 _____________P -1 13.25 -59.65 TS 35 15 302
1897 NA CS 18:00:00 TS 13.70 -60.30 344 342 _____________O -1 13.70 -60.30 TS 35 15 304
1897 NA CS 21:00:00 TS 14.10 -60.95 380 380 _____________P -1 14.10 -60.95 TS 35 15 302
1897 NA CS 1897-09-27 00:00:00 TS 14.50 -61.60 425 425 _____________O -1 14.50 -61.60 TS 35 15 303
1897 NA CS 03:00:00 TS 14.91 -62.25 470 432 _____________P -1 14.91 -62.25 TS 35 15 302
1897 NA CS 06:00:00 TS 15.30 -62.90 432 356 _____________O -1 15.30 -62.90 TS 35 15 300
1897 NA CS 09:00:00 TS 15.65 -63.61 347 281 _____________P -1 15.65 -63.61 TS 35 14 299
1897 NA CS 12:00:00 TS 16.00 -64.20 281 226 _____________O -1 16.00 -64.20 TS 35 11 311
1897 NA CS 15:00:00 TS 16.40 -64.51 226 177 _____________P -1 16.40 -64.51 TS 32 9 329
1897 NA CS 18:00:00 TS 16.80 -64.70 177 138 _____________O -1 16.80 -64.70 TD 30 9 331
1897 NA CS 21:00:00 TS 17.15 -64.95 131 84 _____________P -1 17.15 -64.95 TD 30 9 326
1897 NA CS 1897-09-28 00:00:00 TS 17.50 -65.20 84 39 _____________O -1 17.50 -65.20 TD 30 9 328
1897 NA CS 03:00:00 TS 17.90 -65.45 33 0 _____________P -1 17.90 -65.45 TD 30 9 329
1897 NA CS 06:00:00 TS 18.30 -65.70 0 0 _____________O -1 18.30 -65.70 TD 30 9 329
1897 NA NA 09:00:00 TS 18.67 -65.94 33 33 _____________P -1 18.67 -65.94 TD 30 8 326
1897 NA NA 12:00:00 TS 19.00 -66.20 67 67 _____________O -1 19.00 -66.20 TD 30 8 316
1897 NA NA 15:00:00 TS 19.27 -66.54 100 100 _____________P -1 19.27 -66.54 TD 30 8 307
1897 NA NA 18:00:00 TS 19.50 -66.90 123 123 _____________O -1 19.50 -66.90 TD 30 8 308
1897 NA NA 21:00:00 TS 19.75 -67.20 145 145 _____________P -1 19.75 -67.20 TD 30 8 311
1897 NA NA 1897-09-29 00:00:00 TS 20.00 -67.50 176 170 _____________O -1 20.00 -67.50 TD 30 8 309
1897 NA NA 03:00:00 TS 20.25 -67.85 182 175 _____________P -1 20.25 -67.85 TD 30 8 307
1897 NA NA 06:00:00 TS 20.50 -68.20 176 170 _____________O -1 20.50 -68.20 TD 30 8 308
1897 NA NA 09:00:00 TS 20.75 -68.52 177 177 _____________P -1 20.75 -68.52 TD 30 8 312
1897 NA NA 12:00:00 TS 21.00 -68.80 197 197 _____________O -1 21.00 -68.80 TD 30 7 318
1897 NA NA 15:00:00 TS 21.26 -69.02 216 211 _____________P -1 21.26 -69.02 TD 30 6 323
1897 NA NA 18:00:00 TS 21.50 -69.20 228 228 _____________O -1 21.50 -69.20 TD 30 6 322
1897 NA NA 21:00:00 TS 21.70 -69.39 243 243 _____________P -1 21.70 -69.39 TD 30 5 317
1897 NA NA 1897-09-30 00:00:00 TS 21.90 -69.60 256 256 _____________O -1 21.90 -69.60 TD 30 6 317
1897 NA NA 03:00:00 TS 22.15 -69.85 280 278 _____________P -1 22.15 -69.85 TD 30 7 317
1897 NA NA 06:00:00 TS 22.40 -70.10 295 293 _____________O -1 22.40 -70.10 TD 30 6 316
1897 NA NA 09:00:00 TS 22.59 -70.32 314 307 _____________P -1 22.59 -70.32 TD 30 5 317
1897 NA NA 12:00:00 TS 22.80 -70.50 313 311 _____________O -1 22.80 -70.50 TD 30 6 327
1897 NA NA 15:00:00 TS 23.09 -70.66 318 318 _____________P -1 23.09 -70.66 TD 30 7 335
1897 NA NA 18:00:00 TS 23.40 -70.80 334 334 _____________O -1 23.40 -70.80 TD 30 6 339
1897 NA NA 21:00:00 TS 23.65 -70.90 344 344 _____________P -1 23.65 -70.90 TD 30 5 340
1897 NA NA 1897-10-01 00:00:00 TS 23.90 -71.00 365 365 _____________O -1 23.90 -71.00 TD 30 6 338
1897 NA NA 03:00:00 TS 24.20 -71.15 387 382 _____________P -1 24.20 -71.15 TD 30 7 335
1897 NA NA 06:00:00 TS 24.50 -71.30 407 407 _____________O -1 24.50 -71.30 TD 30 6 336
1897 NA NA 09:00:00 TS 24.75 -71.42 424 424 _____________P -1 24.75 -71.42 TD 30 5 340
1897 NA NA 12:00:00 TS 25.00 -71.50 451 451 _____________O -1 25.00 -71.50 TD 30 6 352
1897 NA NA 15:00:00 TS 25.30 -71.52 483 483 _____________P -1 25.30 -71.52 TD 32 6 1
1897 NA NA 18:00:00 TS 25.60 -71.50 515 515 _____________O -1 25.60 -71.50 TS 35 6 0
1897 NA NA 21:00:00 TS 25.85 -71.51 547 536 _____________P -1 25.85 -71.51 TS 35 5 2
1897 NA NA 1897-10-02 00:00:00 TS 26.10 -71.50 568 568 _____________O -1 26.10 -71.50 TS 35 6 4
1897 NA NA 03:00:00 TS 26.40 -71.46 600 600 _____________P -1 26.40 -71.46 TS 37 6 8
1897 NA NA 06:00:00 TS 26.70 -71.40 635 635 _____________O -1 26.70 -71.40 TS 40 6 11
1897 NA NA 09:00:00 TS 26.95 -71.34 659 659 _____________P -1 26.95 -71.34 TS 40 5 20
1897 NA NA 12:00:00 TS 27.20 -71.20 694 694 _____________O -1 27.20 -71.20 TS 40 7 37
1897 NA NA 15:00:00 TS 27.49 -70.88 735 735 _____________P -1 27.49 -70.88 TS 40 9 46
1897 NA NA 18:00:00 TS 27.80 -70.50 779 779 _____________O -1 27.80 -70.50 TS 40 9 45
1897 NA NA 21:00:00 TS 28.10 -70.19 821 821 _____________P -1 28.10 -70.19 TS 40 8 41
1897 NA NA 1897-10-03 00:00:00 TS 28.40 -69.90 863 863 _____________O -1 28.40 -69.90 TS 40 8 41
1897 NA NA 03:00:00 TS 28.71 -69.60 905 905 _____________P -1 28.71 -69.60 TS 40 8 41
1897 NA NA 06:00:00 TS 29.00 -69.30 929 927 _____________O -1 29.00 -69.30 TS 40 8 43
1897 NA NA 09:00:00 TS 29.26 -69.00 927 926 _____________P -1 29.26 -69.00 TS 40 7 46
1897 NA NA 12:00:00 TS 29.50 -68.70 933 933 _____________O -1 29.50 -68.70 TS 40 7 50
1897 NA NA 15:00:00 TS 29.71 -68.39 940 940 _____________P -1 29.71 -68.39 TS 40 7 52
1897 NA NA 18:00:00 TS 29.90 -68.10 948 948 _____________O -1 29.90 -68.10 TS 40 6 55
1897 NA NA 21:00:00 TS 30.05 -67.85 965 957 _____________P -1 30.05 -67.85 TS 40 5 55
1897 NA NA 1897-10-04 00:00:00 TS 30.20 -67.60 964 963 _____________O -1 30.20 -67.60 TS 40 6 54
1897 NA NA 03:00:00 TS 30.40 -67.30 970 970 _____________P -1 30.40 -67.30 TS 40 7 52
1897 NA NA 06:00:00 TS 30.60 -67.00 978 978 _____________O -1 30.60 -67.00 TS 40 6 54
1897 NA NA 09:00:00 TS 30.75 -66.75 994 987 _____________P -1 30.75 -66.75 TS 40 5 55
1897 NA NA 12:00:00 TS 30.90 -66.50 996 996 _____________O -1 30.90 -66.50 TS 40 6 53
1897 NA NA 15:00:00 TS 31.10 -66.20 1007 1007 _____________P -1 31.10 -66.20 TS 40 7 52
1897 NA NA 18:00:00 TS 31.30 -65.90 1019 1019 _____________O -1 31.30 -65.90 TS 40 6 53
1897 NA NA 21:00:00 TS 31.45 -65.65 1037 1031 _____________P -1 31.45 -65.65 TS 40 5 55
1897 NA NA 1897-10-05 00:00:00 TS 31.60 -65.40 1042 1042 _____________O -1 31.60 -65.40 TS 40 6 53
1897 NA NA 03:00:00 TS 31.80 -65.10 1056 1056 _____________P -1 31.80 -65.10 TS 40 6 52
1897 NA NA 06:00:00 TS 32.00 -64.80 1071 1071 _____________O -1 32.00 -64.80 TS 40 5 54
1897 NA NA 09:00:00 TS 32.10 -64.61 1084 1084 _____________P -1 32.10 -64.61 TS 37 5 55
1897 NA NA 12:00:00 TS 32.30 -64.30 1100 1100 _____________O -1 32.30 -64.30 TS 35 10 51
1897 NA NA 15:00:00 TS 32.75 -63.67 1135 1123 _____________P -1 32.75 -63.67 TS 35 15 50
1897 NA NA 18:00:00 ET 33.30 -62.90 1123 1111 _____________O -1 33.30 -62.90 EX 35 16 49
1897 NA NA 21:00:00 ET 33.80 -62.20 1112 1075 _____________P -1 33.80 -62.20 EX 32 15 49
1897 NA NA 1897-10-06 00:00:00 ET 34.30 -61.50 1075 1042 _____________O -1 34.30 -61.50 EX 30 15 49
1897 NA NA 03:00:00 ET 34.80 -60.80 1042 1015 _____________P -1 34.80 -60.80 EX 30 15 49
1897 NA NA 06:00:00 ET 35.30 -60.10 1015 998 _____________O -1 35.30 -60.10 EX 30 15 50
1897 NA NA 09:00:00 ET 35.75 -59.43 1003 977 _____________P -1 35.75 -59.43 EX 30 15 49
1897 NA NA 12:00:00 ET 36.30 -58.70 977 945 _____________O -1 36.30 -58.70 EX 30 19 44
1897 NA NA 15:00:00 ET 37.10 -57.80 942 872 _____________P -1 37.10 -57.80 EX 30 23 42
1897 NA NA 18:00:00 ET 38.00 -56.80 876 830 _____________O -1 38.00 -56.80 EX 30 24 42
1897 NA NA 21:00:00 ET 38.85 -55.80 834 774 _____________P -1 38.85 -55.80 EX 30 23 42
1897 NA NA 1897-10-07 00:00:00 ET 39.70 -54.80 773 678 _____________O -1 39.70 -54.80 EX 30 23 41
1897 NA NA 03:00:00 ET 40.56 -53.84 667 578 _____________P -1 40.56 -53.84 EX 30 22 40
1897 NA NA 06:00:00 ET 41.40 -52.90 578 498 _____________O -1 41.40 -52.90 EX 30 22 40
1897 NA NA 09:00:00 ET 42.21 -51.96 498 432 _____________P -1 42.21 -51.96 EX 30 21 41
1897 NA NA 12:00:00 ET 43.00 -51.00 435 _____________O -1 43.00 -51.00 EX 30 21 42